createdAt,value
2019-03-17T00:00:40.049Z,2.60
2019-03-17T00:03:27.674Z,2.60
2019-03-17T00:06:14.973Z,2.50
2019-03-17T00:09:02.345Z,2.50
2019-03-17T00:11:49.753Z,2.60
2019-03-17T00:14:37.165Z,2.80
2019-03-17T00:17:25.198Z,2.80
2019-03-17T00:20:12.894Z,2.70
2019-03-17T00:23:00.543Z,2.50
2019-03-17T00:25:48.130Z,2.50
2019-03-17T00:28:35.464Z,2.30
2019-03-17T00:31:24.133Z,2.30
2019-03-17T00:34:12.144Z,2.20
2019-03-17T00:36:59.839Z,2.10
2019-03-17T00:39:48.936Z,2.10
2019-03-17T00:42:36.319Z,2.10
2019-03-17T00:45:24.031Z,2.20
2019-03-17T00:48:11.117Z,2.00
2019-03-17T00:50:58.713Z,2.00
2019-03-17T00:53:45.935Z,2.00
2019-03-17T00:56:33.242Z,2.00
2019-03-17T00:59:20.548Z,2.10
2019-03-17T01:02:07.947Z,2.10
2019-03-17T01:04:56.423Z,2.00
2019-03-17T01:07:43.820Z,1.90
2019-03-17T01:10:31.194Z,1.80
2019-03-17T01:13:18.408Z,2.00
2019-03-17T01:16:05.670Z,2.00
2019-03-17T01:18:53.114Z,1.90
2019-03-17T01:21:40.472Z,1.70
2019-03-17T01:24:27.673Z,1.70
2019-03-17T01:27:14.714Z,1.60
2019-03-17T01:30:02.061Z,1.60
2019-03-17T01:32:49.527Z,1.50
2019-03-17T01:35:36.845Z,1.40
2019-03-17T01:38:24.379Z,1.50
2019-03-17T01:41:12.104Z,1.60
2019-03-17T01:43:59.447Z,1.50
2019-03-17T01:46:46.809Z,1.60
2019-03-17T01:49:34.295Z,1.60
2019-03-17T01:52:21.789Z,1.70
2019-03-17T01:55:09.105Z,1.80
2019-03-17T01:57:56.798Z,1.90
2019-03-17T02:00:44.501Z,1.80
2019-03-17T02:03:32.042Z,1.70
2019-03-17T02:06:19.714Z,1.70
2019-03-17T02:09:08.101Z,1.60
2019-03-17T02:11:57.786Z,1.50
2019-03-17T02:14:45.379Z,1.50
2019-03-17T02:17:32.708Z,1.40
2019-03-17T02:20:19.984Z,1.40
2019-03-17T02:23:07.163Z,1.30
2019-03-17T02:25:54.970Z,1.40
2019-03-17T02:28:42.714Z,1.40
2019-03-17T02:31:30.441Z,1.30
2019-03-17T02:34:17.638Z,1.40
2019-03-17T02:37:05.068Z,1.30
2019-03-17T02:39:53.184Z,1.30
2019-03-17T02:42:40.545Z,1.30
2019-03-17T02:45:27.896Z,1.30
2019-03-17T02:48:15.327Z,1.20
2019-03-17T02:51:03.086Z,1.10
2019-03-17T02:53:50.585Z,1.10
2019-03-17T02:56:37.642Z,0.90
2019-03-17T02:59:24.717Z,0.80
2019-03-17T03:02:11.952Z,0.80
2019-03-17T03:04:59.070Z,0.70
2019-03-17T03:07:46.663Z,0.70
2019-03-17T03:10:34.304Z,0.60
2019-03-17T03:13:21.999Z,0.70
2019-03-17T03:16:09.821Z,0.60
2019-03-17T03:18:57.147Z,0.70
2019-03-17T03:21:44.597Z,0.70
2019-03-17T03:24:31.827Z,0.60
2019-03-17T03:27:19.123Z,0.70
2019-03-17T03:30:07.036Z,0.60
2019-03-17T03:32:54.439Z,0.50
2019-03-17T03:35:41.643Z,0.60
2019-03-17T03:38:28.953Z,0.50
2019-03-17T03:41:16.093Z,0.50
2019-03-17T03:44:03.566Z,0.40
2019-03-17T03:46:51.009Z,0.30
2019-03-17T03:49:38.382Z,0.20
2019-03-17T03:52:26.181Z,0.20
2019-03-17T03:55:13.763Z,0.20
2019-03-17T03:58:00.934Z,0.30
2019-03-17T04:00:48.034Z,0.30
2019-03-17T04:03:35.466Z,0.20
2019-03-17T04:06:26.938Z,0.00
2019-03-17T04:09:11.711Z,-0.10
2019-03-17T04:11:59.453Z,-0.10
2019-03-17T04:14:46.902Z,0.10
2019-03-17T04:17:34.755Z,0.10
2019-03-17T04:20:22.417Z,0.00
2019-03-17T04:23:10.158Z,0.00
2019-03-17T04:25:57.638Z,-0.10
2019-03-17T04:28:44.945Z,-0.20
2019-03-17T04:31:32.006Z,-0.30
2019-03-17T04:34:19.352Z,-0.30
2019-03-17T04:37:06.862Z,-0.30
2019-03-17T04:39:54.456Z,-0.40
2019-03-17T04:42:41.878Z,-0.40
2019-03-17T04:45:29.292Z,-0.50
2019-03-17T04:48:16.811Z,-0.50
2019-03-17T04:51:04.297Z,-0.50
2019-03-17T04:53:51.755Z,-0.60
2019-03-17T04:56:39.319Z,-0.60
2019-03-17T04:59:27.929Z,-0.60
2019-03-17T05:02:15.517Z,-0.40
2019-03-17T05:05:02.964Z,-0.40
2019-03-17T05:07:50.192Z,-0.40
2019-03-17T05:10:37.854Z,-0.40
2019-03-17T05:13:25.611Z,-0.40
2019-03-17T05:16:13.304Z,-0.50
2019-03-17T05:19:00.765Z,-0.60
2019-03-17T05:21:47.846Z,-0.50
2019-03-17T05:24:35.333Z,-0.60
2019-03-17T05:27:22.451Z,-0.60
2019-03-17T05:30:09.734Z,-0.60
2019-03-17T05:32:57.498Z,-0.50
2019-03-17T05:35:44.778Z,-0.50
2019-03-17T05:38:32.309Z,-0.40
2019-03-17T05:41:19.864Z,-0.40
2019-03-17T05:44:07.774Z,-0.40
2019-03-17T05:46:55.333Z,-0.30
2019-03-17T05:49:43.661Z,-0.40
2019-03-17T05:52:30.753Z,-0.40
2019-03-17T05:55:17.723Z,-0.30
2019-03-17T05:58:04.841Z,-0.20
2019-03-17T06:00:52.088Z,-0.10
2019-03-17T06:03:39.629Z,-0.10
2019-03-17T06:06:26.841Z,0.10
2019-03-17T06:09:14.470Z,0.20
2019-03-17T06:12:01.876Z,0.20
2019-03-17T06:14:49.273Z,0.30
2019-03-17T06:17:36.767Z,0.30
2019-03-17T06:20:24.099Z,0.30
2019-03-17T06:23:11.593Z,0.40
2019-03-17T06:25:58.929Z,0.60
2019-03-17T06:28:46.558Z,0.70
2019-03-17T06:31:34.024Z,0.90
2019-03-17T06:34:24.250Z,1.10
2019-03-17T06:37:10.777Z,1.20
2019-03-17T06:39:58.045Z,1.40
2019-03-17T06:42:45.768Z,1.50
2019-03-17T06:45:33.412Z,1.50
2019-03-17T06:48:20.611Z,1.60
2019-03-17T06:51:07.685Z,1.70
2019-03-17T06:53:56.534Z,1.80
2019-03-17T06:56:43.950Z,2.00
2019-03-17T06:59:31.231Z,2.10
2019-03-17T07:02:18.685Z,2.40
2019-03-17T07:05:06.544Z,2.60
2019-03-17T07:07:53.925Z,2.80
2019-03-17T07:10:41.587Z,3.00
2019-03-17T07:13:29.217Z,3.20
2019-03-17T07:16:16.345Z,3.30
2019-03-17T07:19:04.644Z,3.50
2019-03-17T07:21:56.976Z,3.80
2019-03-17T07:24:45.338Z,4.40
2019-03-17T07:27:33.692Z,4.90
2019-03-17T07:30:24.513Z,5.20
2019-03-17T07:33:11.912Z,5.80
2019-03-17T07:35:58.954Z,6.00
2019-03-17T07:38:46.102Z,6.20
2019-03-17T07:41:33.818Z,6.90
2019-03-17T07:44:21.528Z,7.30
2019-03-17T07:47:12.119Z,7.60
2019-03-17T07:50:03.944Z,8.00
2019-03-17T07:52:51.379Z,8.60
2019-03-17T07:55:39.629Z,9.20
2019-03-17T07:58:28.577Z,9.90
2019-03-17T08:01:17.443Z,10.50
2019-03-17T08:04:05.588Z,11.00
2019-03-17T08:06:53.140Z,11.40
2019-03-17T08:09:42.261Z,11.80
2019-03-17T08:12:36.265Z,12.00
2019-03-17T08:15:24.713Z,12.10
2019-03-17T08:18:15.909Z,12.30
2019-03-17T08:21:04.665Z,12.50
2019-03-17T08:24:11.853Z,12.80
2019-03-17T08:27:06.144Z,13.20
2019-03-17T08:29:57.153Z,13.60
2019-03-17T08:32:57.911Z,13.90
2019-03-17T08:35:59.135Z,14.30
2019-03-17T08:38:53.850Z,14.70
2019-03-17T08:41:47.400Z,15.10
2019-03-17T08:44:39.536Z,15.40
2019-03-17T08:47:56.529Z,15.30
2019-03-17T08:50:32.000Z,15.40
2019-03-17T08:53:26.094Z,15.40
2019-03-17T08:56:33.685Z,15.70
2019-03-17T08:59:44.549Z,15.80
2019-03-17T09:02:36.182Z,15.90
2019-03-17T09:05:25.057Z,16.20
2019-03-17T09:08:18.621Z,16.30
2019-03-17T09:11:07.690Z,16.30
2019-03-17T09:13:59.705Z,16.40
2019-03-17T09:16:53.293Z,16.30
2019-03-17T09:19:43.979Z,16.40
2019-03-17T09:22:33.469Z,16.70
2019-03-17T09:25:26.297Z,16.70
2019-03-17T09:28:16.301Z,16.90
2019-03-17T09:31:07.300Z,17.10
2019-03-17T09:33:58.024Z,17.00
2019-03-17T09:36:50.336Z,17.00
2019-03-17T09:39:38.800Z,17.10
2019-03-17T09:42:33.177Z,17.20
2019-03-17T09:45:42.278Z,17.20
2019-03-17T09:48:32.917Z,17.30
2019-03-17T09:51:23.209Z,17.10
2019-03-17T09:54:10.721Z,17.00
2019-03-17T09:56:58.211Z,17.00
2019-03-17T09:59:45.485Z,17.10
2019-03-17T10:02:32.951Z,17.10
2019-03-17T10:05:20.298Z,17.10
2019-03-17T10:08:07.640Z,17.10
2019-03-17T10:10:55.221Z,17.10
2019-03-17T10:13:43.567Z,17.40
2019-03-17T10:16:33.833Z,17.10
2019-03-17T10:19:23.595Z,16.90
2019-03-17T10:22:13.788Z,17.00
2019-03-17T10:25:08.977Z,17.20
2019-03-17T10:27:59.204Z,17.80
2019-03-17T10:30:57.582Z,17.80
2019-03-17T10:33:54.727Z,18.30
2019-03-17T10:36:43.972Z,18.50
2019-03-17T10:39:32.856Z,18.60
2019-03-17T10:42:25.193Z,18.50
2019-03-17T10:45:27.695Z,18.30
2019-03-17T10:48:20.956Z,18.40
2019-03-17T10:51:08.473Z,18.20
2019-03-17T10:53:59.979Z,18.60
2019-03-17T10:56:47.382Z,18.60
2019-03-17T10:59:38.108Z,18.40
2019-03-17T11:02:29.618Z,18.40
2019-03-17T11:05:18.699Z,18.30
2019-03-17T11:08:08.570Z,18.40
2019-03-17T11:11:17.411Z,18.60
2019-03-17T11:14:05.082Z,18.50
2019-03-17T11:16:53.057Z,18.60
2019-03-17T11:19:40.613Z,18.80
2019-03-17T11:22:27.671Z,18.50
2019-03-17T11:25:15.285Z,18.60
2019-03-17T11:28:02.386Z,18.20
2019-03-17T11:31:00.029Z,18.10
2019-03-17T11:33:47.205Z,18.00
2019-03-17T11:36:34.790Z,17.60
2019-03-17T11:39:21.913Z,17.60
2019-03-17T11:42:09.077Z,17.50
2019-03-17T11:44:57.180Z,17.80
2019-03-17T11:47:45.705Z,17.90
2019-03-17T11:50:38.054Z,17.70
2019-03-17T11:53:26.024Z,17.60
2019-03-17T11:56:13.390Z,18.20
2019-03-17T11:59:00.739Z,18.50
2019-03-17T12:01:48.150Z,18.30
2019-03-17T12:04:35.410Z,18.40
2019-03-17T12:07:23.200Z,18.20
2019-03-17T12:10:12.337Z,18.40
2019-03-17T12:12:59.914Z,18.40
2019-03-17T12:15:47.598Z,18.50
2019-03-17T12:18:35.240Z,18.40
2019-03-17T12:21:22.693Z,18.80
2019-03-17T12:24:10.317Z,18.90
2019-03-17T12:26:58.086Z,19.00
2019-03-17T12:29:45.156Z,19.10
2019-03-17T12:32:32.781Z,19.10
2019-03-17T12:35:20.711Z,19.20
2019-03-17T12:38:08.084Z,19.00
2019-03-17T12:40:55.432Z,18.70
2019-03-17T12:43:42.810Z,18.20
2019-03-17T12:46:30.490Z,17.80
2019-03-17T12:49:17.589Z,17.40
2019-03-17T12:52:05.133Z,17.20
2019-03-17T12:54:52.180Z,17.00
2019-03-17T12:57:39.338Z,16.90
2019-03-17T13:00:26.452Z,16.90
2019-03-17T13:03:15.135Z,16.80
2019-03-17T13:06:02.298Z,16.60
2019-03-17T13:08:49.662Z,16.50
2019-03-17T13:11:37.357Z,16.50
2019-03-17T13:14:24.472Z,16.40
2019-03-17T13:17:12.927Z,16.30
2019-03-17T13:19:59.950Z,16.10
2019-03-17T13:22:47.657Z,16.00
2019-03-17T13:25:34.902Z,15.90
2019-03-17T13:28:22.197Z,15.70
2019-03-17T13:31:09.604Z,15.50
2019-03-17T13:33:57.019Z,15.40
2019-03-17T13:36:46.612Z,15.50
2019-03-17T13:39:33.264Z,15.00
2019-03-17T13:42:20.530Z,14.80
2019-03-17T13:45:08.419Z,14.70
2019-03-17T13:47:55.736Z,14.60
2019-03-17T13:50:43.442Z,14.60
2019-03-17T13:53:31.116Z,14.60
2019-03-17T13:59:06.560Z,14.50
2019-03-17T14:01:54.053Z,14.10
2019-03-17T14:04:41.461Z,12.30
2019-03-17T14:07:28.920Z,11.50
2019-03-17T14:10:16.670Z,11.10
2019-03-17T14:13:04.030Z,10.50
2019-03-17T14:15:52.239Z,9.30
2019-03-17T14:18:40.596Z,8.90
2019-03-17T14:21:30.283Z,8.70
2019-03-17T14:24:18.209Z,8.40
2019-03-17T14:27:06.595Z,8.30
2019-03-17T14:29:54.451Z,8.10
2019-03-17T14:32:41.876Z,8.00
2019-03-17T14:35:29.655Z,8.00
2019-03-17T14:38:17.219Z,7.70
2019-03-17T14:41:04.549Z,7.50
2019-03-17T14:43:51.623Z,7.30
2019-03-17T14:46:39.005Z,7.20
2019-03-17T14:49:26.118Z,7.00
2019-03-17T14:52:13.623Z,7.00
2019-03-17T14:55:00.663Z,6.80
2019-03-17T14:57:47.740Z,6.80
2019-03-17T15:00:35.497Z,6.80
2019-03-17T15:03:22.604Z,6.80
2019-03-17T15:06:09.688Z,6.80
2019-03-17T15:08:57.145Z,6.80
2019-03-17T15:11:48.135Z,6.70
2019-03-17T15:14:35.800Z,6.60
2019-03-17T15:17:23.425Z,6.60
2019-03-17T15:20:12.581Z,6.60
2019-03-17T15:23:00.247Z,6.50
2019-03-17T15:25:47.381Z,6.50
2019-03-17T15:28:34.435Z,6.40
2019-03-17T15:31:21.533Z,6.30
2019-03-17T15:34:08.554Z,6.30
2019-03-17T15:36:56.289Z,6.20
2019-03-17T15:39:43.414Z,6.20
2019-03-17T15:42:30.777Z,6.20
2019-03-17T15:45:17.954Z,6.20
2019-03-17T15:48:05.164Z,6.10
2019-03-17T15:50:52.789Z,6.20
2019-03-17T15:53:40.166Z,6.20
2019-03-17T15:56:27.550Z,6.30
2019-03-17T15:59:14.735Z,6.20
2019-03-17T16:02:02.108Z,6.20
2019-03-17T16:04:49.686Z,6.10
2019-03-17T16:07:42.427Z,6.10
2019-03-17T16:10:31.328Z,6.10
2019-03-17T16:13:23.813Z,6.10
2019-03-17T16:16:11.236Z,6.10
2019-03-17T16:18:58.678Z,6.20
2019-03-17T16:21:46.094Z,6.30
2019-03-17T16:24:33.412Z,6.20
2019-03-17T16:27:20.888Z,6.20
2019-03-17T16:30:11.470Z,6.10
2019-03-17T16:32:59.124Z,6.10
2019-03-17T16:35:46.520Z,6.10
2019-03-17T16:38:33.953Z,6.10
2019-03-17T16:41:24.589Z,6.10
2019-03-17T16:44:12.585Z,6.10
2019-03-17T16:47:00.062Z,6.00
2019-03-17T16:49:47.612Z,6.10
2019-03-17T16:52:35.394Z,6.10
2019-03-17T16:55:22.977Z,6.00
2019-03-17T16:58:10.153Z,6.00
2019-03-17T17:00:59.143Z,5.90
2019-03-17T17:03:50.416Z,6.00
2019-03-17T17:06:38.676Z,6.00
2019-03-17T17:09:26.412Z,6.00
2019-03-17T17:12:13.553Z,5.90
2019-03-17T17:15:01.215Z,5.90
2019-03-17T17:17:48.535Z,5.90
2019-03-17T17:20:35.740Z,5.80
2019-03-17T17:23:22.830Z,5.80
2019-03-17T17:26:37.443Z,5.80
2019-03-17T17:29:19.084Z,5.80
2019-03-17T17:32:06.750Z,5.70
2019-03-17T17:34:54.454Z,5.80
2019-03-17T17:37:42.217Z,5.80
2019-03-17T17:40:30.079Z,5.80
2019-03-17T17:43:17.377Z,5.80
2019-03-17T17:46:04.899Z,5.80
2019-03-17T17:48:52.577Z,5.70
2019-03-17T17:51:40.217Z,5.60
2019-03-17T17:54:27.920Z,5.60
2019-03-17T17:57:15.000Z,5.60
2019-03-17T18:00:02.622Z,5.60
2019-03-17T18:02:49.792Z,5.60
2019-03-17T18:05:37.135Z,5.60
2019-03-17T18:08:24.208Z,5.60
2019-03-17T18:11:11.741Z,5.60
2019-03-17T18:14:07.999Z,5.60
2019-03-17T18:16:55.280Z,5.60
2019-03-17T18:19:42.452Z,5.70
2019-03-17T18:22:29.614Z,5.70
2019-03-17T18:25:17.305Z,5.70
2019-03-17T18:28:04.677Z,5.80
2019-03-17T18:30:51.762Z,5.80
2019-03-17T18:33:40.628Z,5.90
2019-03-17T18:36:28.816Z,5.80
2019-03-17T18:39:27.848Z,5.80
2019-03-17T18:42:32.661Z,5.80
2019-03-17T18:45:22.880Z,5.80
2019-03-17T18:48:17.983Z,5.90
2019-03-17T18:51:08.998Z,5.90
2019-03-17T18:54:01.553Z,5.90
2019-03-17T18:56:54.268Z,5.90
2019-03-17T18:59:42.092Z,5.90
2019-03-17T19:02:37.745Z,5.90
2019-03-17T19:05:33.936Z,5.80
2019-03-17T19:08:41.043Z,5.80
2019-03-17T19:11:34.589Z,5.70
2019-03-17T19:14:22.719Z,5.70
2019-03-17T19:17:10.108Z,5.70
2019-03-17T19:19:57.950Z,5.70
2019-03-17T19:22:45.613Z,5.70
2019-03-17T19:25:33.270Z,5.70
2019-03-17T19:28:20.668Z,5.70
2019-03-17T19:31:08.355Z,5.60
2019-03-17T19:33:55.437Z,5.60
2019-03-17T19:36:43.945Z,5.60
2019-03-17T19:39:31.396Z,5.50
2019-03-17T19:42:18.703Z,5.50
2019-03-17T19:45:06.691Z,5.50
2019-03-17T19:47:54.271Z,5.50
2019-03-17T19:50:41.379Z,5.40
2019-03-17T19:53:28.729Z,5.30
2019-03-17T19:56:15.741Z,5.30
2019-03-17T19:59:03.518Z,5.30
2019-03-17T20:01:50.590Z,5.40
2019-03-17T20:04:37.812Z,5.40
2019-03-17T20:07:24.899Z,5.40
2019-03-17T20:10:13.969Z,5.50
2019-03-17T20:13:10.708Z,5.40
2019-03-17T20:15:50.485Z,5.40
2019-03-17T20:18:41.309Z,5.40
2019-03-17T20:21:28.941Z,5.40
2019-03-17T20:24:19.146Z,5.40
2019-03-17T20:27:09.247Z,5.40
2019-03-17T20:29:59.526Z,5.40
2019-03-17T20:32:47.192Z,5.40
2019-03-17T20:35:34.286Z,5.40
2019-03-17T20:38:21.726Z,5.30
2019-03-17T20:41:09.047Z,5.30
2019-03-17T20:43:56.630Z,5.30
2019-03-17T20:46:44.265Z,5.20
2019-03-17T20:49:31.895Z,5.20
2019-03-17T20:52:19.533Z,5.30
2019-03-17T20:55:07.266Z,5.30
2019-03-17T20:57:54.674Z,5.30
2019-03-17T21:00:42.312Z,5.20
2019-03-17T21:03:31.941Z,5.30
2019-03-17T21:06:19.498Z,5.20
2019-03-17T21:09:08.073Z,5.30
2019-03-17T21:11:55.902Z,5.30
2019-03-17T21:14:43.213Z,5.40
2019-03-17T21:17:30.289Z,5.30
2019-03-17T21:20:18.129Z,5.30
2019-03-17T21:23:05.749Z,5.30
2019-03-17T21:25:52.918Z,5.20
2019-03-17T21:28:40.230Z,5.20
2019-03-17T21:31:27.610Z,5.20
2019-03-17T21:34:14.961Z,5.20
2019-03-17T21:37:02.285Z,5.20
2019-03-17T21:39:49.960Z,5.10
2019-03-17T21:42:37.590Z,5.10
2019-03-17T21:45:27.278Z,5.10
2019-03-17T21:48:13.788Z,5.10
2019-03-17T21:51:01.140Z,5.10
2019-03-17T21:53:48.730Z,5.00
2019-03-17T21:56:35.862Z,5.00
2019-03-17T21:59:23.369Z,4.90
2019-03-17T22:02:13.226Z,4.90
2019-03-17T22:05:00.752Z,4.80
2019-03-17T22:07:50.809Z,4.80
2019-03-17T22:10:37.158Z,4.70
2019-03-17T22:13:24.545Z,4.60
2019-03-17T22:16:11.858Z,4.60
2019-03-17T22:18:59.278Z,4.60
2019-03-17T22:21:46.400Z,4.60
2019-03-17T22:24:33.504Z,4.50
2019-03-17T22:27:20.615Z,4.50
2019-03-17T22:30:09.554Z,4.50
2019-03-17T22:32:57.111Z,4.50
2019-03-17T22:35:44.735Z,4.50
2019-03-17T22:38:32.254Z,4.40
2019-03-17T22:41:19.381Z,4.40
2019-03-17T22:44:06.882Z,4.30
2019-03-17T22:46:54.105Z,4.20
2019-03-17T22:49:41.678Z,4.30
2019-03-17T22:52:29.916Z,4.30
2019-03-17T22:55:17.054Z,4.30
2019-03-17T22:58:04.145Z,4.30
2019-03-17T23:00:52.257Z,4.30
2019-03-17T23:03:39.813Z,4.30
2019-03-17T23:06:27.530Z,4.40
2019-03-17T23:09:14.601Z,4.30
2019-03-17T23:12:01.682Z,4.30
2019-03-17T23:14:49.315Z,4.20
2019-03-17T23:17:36.653Z,4.10
2019-03-17T23:20:24.056Z,4.10
2019-03-17T23:23:11.495Z,4.10
2019-03-17T23:25:58.573Z,4.00
2019-03-17T23:28:45.650Z,4.00
2019-03-17T23:31:32.831Z,4.00
2019-03-17T23:34:20.084Z,4.00
2019-03-17T23:37:07.329Z,4.00
2019-03-17T23:39:54.887Z,3.90
2019-03-17T23:42:42.681Z,3.90
2019-03-17T23:45:30.011Z,3.90
2019-03-17T23:48:17.137Z,3.80
2019-03-17T23:51:04.938Z,3.70
2019-03-17T23:53:52.242Z,3.70
2019-03-17T23:56:39.331Z,3.60
2019-03-17T23:59:26.923Z,3.60
